Time;durP1;ratioP1;P1;durP2;ratioP2;P2;SDS_P1;SDS_P2;PMS_P1;PMS_P2;Temp;Humidity;BMP_temperature;BMP_pressure;BME280_temperature;BME280_humidity;BME280_pressure;Samples;Min_cycle;Max_cycle;Signal;HPM_P1;HPM_P2
2023/07/02 00:01:48;;;;;;;13.53;5.70;;;;;;;20.24;82.90;99272.27;1452349;90;21369;-83
2023/07/02 00:04:20;;;;;;;8.20;5.33;;;;;;;20.17;82.78;99274.30;1449788;90;22315;-84
2023/07/02 00:06:44;;;;;;;7.37;5.50;;;;;;;20.13;83.14;99282.52;1488857;90;22251;-84
2023/07/02 00:09:11;;;;;;;10.20;5.37;;;;;;;20.11;83.46;99282.47;1457337;90;21488;-84
2023/07/02 00:11:39;;;;;;;11.38;5.42;;;;;;;20.06;83.93;99287.22;1445561;90;22427;-82
2023/07/02 00:14:07;;;;;;;12.58;5.30;;;;;;;20.02;84.43;99288.73;1443497;89;21853;-84
2023/07/02 00:16:34;;;;;;;6.60;4.62;;;;;;;20.00;85.29;99290.33;1432498;91;21330;-84
2023/07/02 00:19:01;;;;;;;11.73;6.28;;;;;;;19.98;86.06;99292.96;1447393;90;22301;-82
2023/07/02 00:21:27;;;;;;;6.83;5.30;;;;;;;19.95;87.39;99294.77;1452431;89;21353;-82
2023/07/02 00:23:58;;;;;;;7.60;5.92;;;;;;;19.89;87.50;99295.73;1449748;90;22824;-82
2023/07/02 00:26:28;;;;;;;11.18;5.85;;;;;;;19.81;87.63;99293.67;1448993;90;21317;-82
2023/07/02 00:28:56;;;;;;;14.73;5.83;;;;;;;19.76;87.67;99291.41;1453744;90;21604;-82
2023/07/02 00:31:24;;;;;;;13.47;7.27;;;;;;;19.72;87.62;99290.25;1449254;88;21373;-82
2023/07/02 00:33:51;;;;;;;7.92;5.25;;;;;;;19.69;88.14;99298.25;1453395;90;21439;-83
2023/07/02 00:36:17;;;;;;;10.63;5.67;;;;;;;19.70;88.22;99301.74;1449872;90;22259;-82
2023/07/02 00:38:49;;;;;;;7.83;5.93;;;;;;;19.70;88.48;99303.08;1450649;88;21387;-81
2023/07/02 00:41:16;;;;;;;10.13;6.17;;;;;;;19.70;88.67;99305.23;1448518;90;21329;-84
2023/07/02 00:43:45;;;;;;;10.55;7.03;;;;;;;19.70;89.08;99305.77;1449220;90;21999;-83
2023/07/02 00:46:22;;;;;;;9.18;6.58;;;;;;;19.70;88.86;99311.95;1449007;89;21582;-81
2023/07/02 00:48:54;;;;;;;9.60;6.67;;;;;;;19.70;88.72;99322.69;1448043;90;21413;-83
2023/07/02 00:51:24;;;;;;;11.57;7.30;;;;;;;19.68;88.81;99320.78;1462474;90;21449;-84
2023/07/02 00:53:52;;;;;;;;;;;;;;;19.66;89.45;99322.87;1455257;89;21498;-83
2023/07/02 00:56:19;;;;;;;9.50;5.83;;;;;;;19.63;90.44;99321.97;1475322;88;20304;-83
2023/07/02 00:58:51;;;;;;;6.93;6.10;;;;;;;19.64;90.14;99324.13;1475089;88;21404;-83
2023/07/02 01:01:20;;;;;;;8.75;5.90;;;;;;;19.65;90.23;99325.75;1453859;88;21295;-83
2023/07/02 01:04:01;;;;;;;10.20;6.57;;;;;;;19.65;90.33;99323.94;1455939;88;21420;-82
2023/07/02 01:06:34;;;;;;;13.63;6.97;;;;;;;19.67;90.67;99330.39;1448992;90;21475;-82
2023/07/02 01:09:05;;;;;;;13.37;7.87;;;;;;;19.68;90.55;99323.47;1442161;90;21516;-83
2023/07/02 01:11:37;;;;;;;;;;;;;;;19.66;90.73;99317.50;1442300;90;21515;-83
2023/07/02 01:14:12;;;;;;;10.80;7.57;;;;;;;19.62;90.69;99317.63;1396432;92;20853;-84
2023/07/02 01:16:43;;;;;;;9.27;7.13;;;;;;;19.58;90.46;99328.55;1428852;90;21417;-83
2023/07/02 01:19:14;;;;;;;7.45;6.65;;;;;;;19.57;90.84;99329.61;1454385;89;22485;-83
2023/07/02 01:21:40;;;;;;;8.13;6.67;;;;;;;19.55;90.94;99329.02;1450814;90;21605;-85
2023/07/02 01:24:07;;;;;;;8.40;7.45;;;;;;;19.52;91.06;99318.23;1452160;90;21325;-84
2023/07/02 01:26:33;;;;;;;8.48;6.70;;;;;;;19.50;91.51;99320.84;1451419;90;22398;-85
2023/07/02 01:29:17;;;;;;;13.23;8.17;;;;;;;19.49;91.82;99316.54;1432501;90;21376;-85
2023/07/02 01:31:45;;;;;;;8.70;7.33;;;;;;;19.48;91.94;99320.25;1432502;91;21397;-84
2023/07/02 01:34:12;;;;;;;10.63;8.00;;;;;;;19.46;92.16;99325.06;1443384;90;21384;-83
2023/07/02 01:36:38;;;;;;;11.10;7.10;;;;;;;19.44;92.07;99316.41;1446596;90;21280;-83
2023/07/02 01:39:05;;;;;;;9.50;7.30;;;;;;;19.44;92.15;99317.75;1458861;90;21414;-83
2023/07/02 01:41:39;;;;;;;6.47;5.83;;;;;;;19.44;92.37;99315.08;1451982;90;21369;-84
2023/07/02 01:44:05;;;;;;;10.63;7.40;;;;;;;19.42;92.50;99310.45;1448993;90;21605;-82
2023/07/02 01:46:31;;;;;;;9.45;6.75;;;;;;;19.38;92.68;99306.90;1450328;88;21391;-84
2023/07/02 01:48:57;;;;;;;8.83;7.30;;;;;;;19.36;92.71;99303.66;1412652;92;22507;-81
2023/07/02 01:51:24;;;;;;;9.73;8.30;;;;;;;19.35;92.75;99305.21;1437147;90;21576;-82
2023/07/02 01:53:50;;;;;;;12.67;7.73;;;;;;;19.35;92.64;99310.58;1453377;89;21325;-82
2023/07/02 01:56:16;;;;;;;14.93;8.57;;;;;;;19.32;92.56;99302.99;1469027;88;21337;-82
2023/07/02 01:58:42;;;;;;;9.60;7.07;;;;;;;19.28;93.05;99294.60;1473743;88;21441;-83
2023/07/02 02:01:08;;;;;;;9.57;7.40;;;;;;;19.25;93.20;99295.06;1472447;88;21440;-84
2023/07/02 02:03:34;;;;;;;11.93;8.70;;;;;;;19.19;93.75;99294.66;1472664;88;21309;-82
2023/07/02 02:06:00;;;;;;;9.57;6.57;;;;;;;19.19;93.95;99304.54;1452299;90;21347;-83
2023/07/02 02:08:26;;;;;;;10.53;6.83;;;;;;;19.19;94.01;99306.72;1455516;90;21331;-84
2023/07/02 02:10:52;;;;;;;11.40;7.10;;;;;;;19.19;94.39;99305.88;1449563;90;21405;-82
2023/07/02 02:13:18;;;;;;;11.93;9.20;;;;;;;19.18;94.43;99301.58;1451185;89;21369;-84
2023/07/02 02:15:45;;;;;;;12.50;7.30;;;;;;;19.16;94.42;99305.31;1445072;89;21383;-84
2023/07/02 02:18:11;;;;;;;13.62;8.25;;;;;;;19.15;94.43;99304.19;1452606;90;21420;-82
2023/07/02 02:20:38;;;;;;;12.67;7.63;;;;;;;19.14;94.38;99303.91;1450153;90;21947;-85
2023/07/02 02:23:04;;;;;;;8.33;7.37;;;;;;;19.09;94.59;99303.78;1449231;90;21535;-83
2023/07/02 02:25:31;;;;;;;8.40;7.43;;;;;;;19.04;94.75;99301.77;1452724;88;22233;-84
2023/07/02 02:27:57;;;;;;;14.33;7.13;;;;;;;19.05;95.19;99303.95;1452718;90;21302;-84
2023/07/02 02:30:23;;;;;;;11.40;7.47;;;;;;;19.04;95.46;99307.14;1447747;90;22404;-84
2023/07/02 02:32:49;;;;;;;11.63;8.43;;;;;;;19.05;95.34;99305.30;1437263;90;21346;-84
2023/07/02 02:35:15;;;;;;;9.17;7.93;;;;;;;19.04;95.53;99300.96;1453370;90;21490;-85
2023/07/02 02:37:41;;;;;;;10.40;9.07;;;;;;;19.02;95.85;99302.55;1449973;90;22427;-84
2023/07/02 02:40:09;;;;;;;10.53;9.23;;;;;;;19.00;95.75;99302.48;1448665;89;21311;-85
2023/07/02 02:42:36;;;;;;;16.73;7.43;;;;;;;19.00;95.73;99305.16;1447732;88;21427;-84
2023/07/02 02:45:03;;;;;;;8.97;6.47;;;;;;;18.97;96.05;99305.09;1426005;90;21500;-83
2023/07/02 02:47:29;;;;;;;14.73;8.80;;;;;;;18.98;96.12;99303.23;1472083;89;21300;-84
2023/07/02 02:49:55;;;;;;;9.37;7.87;;;;;;;18.96;96.65;99301.29;1459055;87;22319;-84
2023/07/02 02:52:22;;;;;;;9.97;8.97;;;;;;;18.96;96.46;99302.63;1462659;87;22285;-83
2023/07/02 02:54:49;;;;;;;11.90;8.17;;;;;;;18.97;96.69;99308.30;1455239;89;21614;-84
2023/07/02 02:57:15;;;;;;;12.83;8.40;;;;;;;18.98;96.42;99307.25;1478230;87;21433;-84
2023/07/02 02:59:41;;;;;;;11.07;9.40;;;;;;;18.98;97.06;99315.29;1444449;89;21426;-84
2023/07/02 03:02:07;;;;;;;10.37;7.93;;;;;;;18.95;96.42;99311.20;1464307;87;21234;-84
2023/07/02 03:04:35;;;;;;;13.37;8.53;;;;;;;18.96;96.48;99310.67;1466997;87;22508;-84
2023/07/02 03:07:01;;;;;;;10.47;9.37;;;;;;;18.93;96.82;99318.15;1465023;89;21382;-84
2023/07/02 03:09:27;;;;;;;10.10;8.27;;;;;;;18.96;96.86;99317.38;1461352;88;22386;-83
2023/07/02 03:11:53;;;;;;;10.10;8.37;;;;;;;18.98;96.85;99327.36;1443850;90;21448;-83
2023/07/02 03:14:19;;;;;;;12.70;10.27;;;;;;;19.01;97.06;99322.87;1467128;89;21475;-84
2023/07/02 03:16:46;;;;;;;10.30;9.30;;;;;;;19.00;97.00;99316.70;1469486;89;22357;-83
2023/07/02 03:19:14;;;;;;;11.33;9.93;;;;;;;19.00;97.02;99315.36;1467744;88;21266;-84
2023/07/02 03:21:43;;;;;;;10.10;9.10;;;;;;;19.02;96.93;99319.98;1470306;87;21353;-84
2023/07/02 03:24:13;;;;;;;11.87;8.33;;;;;;;19.04;97.21;99318.39;1460848;88;21420;-84
2023/07/02 03:26:37;;;;;;;10.08;7.92;;;;;;;19.03;97.17;99315.42;1464983;89;22316;-84
2023/07/02 03:29:03;;;;;;;12.77;8.77;;;;;;;19.03;97.61;99312.75;1468314;87;21344;-85
2023/07/02 03:31:30;;;;;;;9.85;8.88;;;;;;;19.07;98.00;99317.93;1487381;87;21403;-84
2023/07/02 03:33:56;;;;;;;13.50;9.43;;;;;;;19.10;97.65;99315.63;1475481;87;21544;-85
2023/07/02 03:36:22;;;;;;;12.63;10.00;;;;;;;19.14;97.67;99316.79;1486305;87;22232;-84
2023/07/02 03:38:48;;;;;;;10.90;9.80;;;;;;;19.19;97.57;99321.48;1477681;87;21449;-83
2023/07/02 03:41:14;;;;;;;11.65;10.43;;;;;;;19.22;97.60;99316.98;1491290;87;21351;-83
2023/07/02 03:43:41;;;;;;;12.70;10.03;;;;;;;19.26;97.63;99318.15;1489664;87;22401;-84
2023/07/02 03:46:07;;;;;;;10.53;9.43;;;;;;;19.29;97.83;99321.70;1496242;87;22410;-83
2023/07/02 03:48:33;;;;;;;11.00;9.18;;;;;;;19.33;97.95;99315.34;1467778;87;21315;-84
2023/07/02 03:50:59;;;;;;;12.95;9.30;;;;;;;19.39;97.94;99315.76;1479455;87;21426;-82
2023/07/02 03:53:25;;;;;;;11.97;9.00;;;;;;;19.46;97.97;99314.33;1461253;88;22446;-83
2023/07/02 03:55:52;;;;;;;15.30;8.30;;;;;;;19.53;98.06;99319.03;1486238;87;21373;-83
2023/07/02 03:58:18;;;;;;;15.55;9.70;;;;;;;19.60;97.96;99317.07;1476919;88;21530;-83
2023/07/02 04:00:45;;;;;;;10.98;9.98;;;;;;;19.66;97.90;99318.03;1452017;87;21359;-82
2023/07/02 04:03:11;;;;;;;11.90;9.93;;;;;;;19.71;97.64;99321.66;1476675;87;21484;-82
2023/07/02 04:05:37;;;;;;;14.18;10.05;;;;;;;19.75;97.51;99318.78;1476812;87;21307;-84
2023/07/02 04:08:03;;;;;;;15.72;9.98;;;;;;;19.78;97.38;99322.33;1480032;87;21316;-84
2023/07/02 04:10:30;;;;;;;9.73;8.68;;;;;;;19.82;97.48;99318.15;1488907;87;21374;-87
2023/07/02 04:12:56;;;;;;;18.90;10.45;;;;;;;19.89;97.45;99319.89;1483512;88;21360;-85
2023/07/02 04:15:24;;;;;;;10.68;9.55;;;;;;;19.96;97.41;99320.03;1485315;87;21551;-86
2023/07/02 04:17:50;;;;;;;11.10;10.03;;;;;;;20.03;97.24;99314.55;1488268;87;21527;-84
2023/07/02 04:20:18;;;;;;;11.40;9.70;;;;;;;20.08;96.91;99318.67;1483822;87;21346;-84
2023/07/02 04:22:46;;;;;;;10.45;9.55;;;;;;;20.12;96.68;99319.03;1483113;87;21374;-88
2023/07/02 04:25:16;;;;;;;10.28;9.00;;;;;;;20.18;96.55;99323.45;1491811;87;22298;-93
2023/07/02 04:27:44;;;;;;;13.45;8.68;;;;;;;20.24;96.60;99329.22;1477384;87;21375;-88
2023/07/02 04:30:11;;;;;;;9.68;8.68;;;;;;;20.31;96.52;99330.42;1476683;88;21396;-89
2023/07/02 04:32:41;;;;;;;13.43;9.80;;;;;;;20.37;96.17;99330.80;1451724;88;21389;-89
2023/07/02 04:35:08;;;;;;;12.90;10.18;;;;;;;20.42;95.94;99325.54;1480027;88;21397;-89
2023/07/02 04:37:35;;;;;;;18.60;10.43;;;;;;;20.49;95.71;99335.11;1483687;88;21405;-90
2023/07/02 04:40:13;;;;;;;14.60;9.65;;;;;;;20.54;95.46;99338.44;1484185;88;21522;-90
2023/07/02 04:42:39;;;;;;;10.78;8.65;;;;;;;20.61;95.44;99339.66;1471785;87;22371;-90
2023/07/02 04:45:08;;;;;;;9.85;8.83;;;;;;;20.67;95.35;99348.91;1490825;87;22549;-91
2023/07/02 04:47:35;;;;;;;11.97;8.78;;;;;;;20.73;95.28;99346.61;1479383;87;21451;-90
2023/07/02 04:50:01;;;;;;;13.70;9.43;;;;;;;20.85;95.28;99355.16;1478851;88;21830;-89
2023/07/02 04:52:27;;;;;;;11.53;9.43;;;;;;;20.90;94.82;99348.53;1492403;87;22372;-86
2023/07/02 04:54:53;;;;;;;12.20;9.80;;;;;;;20.97;94.48;99353.22;1488026;87;21485;-86
2023/07/02 04:57:20;;;;;;;10.75;9.65;;;;;;;21.03;94.18;99359.00;1486857;87;22395;-86
2023/07/02 04:59:46;;;;;;;10.32;9.33;;;;;;;21.07;93.86;99356.63;1480350;87;21456;-84
2023/07/02 05:02:12;;;;;;;8.43;7.70;;;;;;;21.14;93.71;99361.31;1480171;88;21418;-86
2023/07/02 05:04:38;;;;;;;10.20;8.35;;;;;;;21.19;93.50;99361.41;1490737;87;21374;-85
2023/07/02 05:07:04;;;;;;;8.60;7.80;;;;;;;21.24;93.21;99362.04;1480747;87;21450;-85
2023/07/02 05:09:31;;;;;;;9.90;8.88;;;;;;;21.29;93.04;99370.17;1489408;87;22259;-85
2023/07/02 05:11:58;;;;;;;10.00;9.10;;;;;;;21.38;92.82;99367.42;1488125;87;21433;-87
2023/07/02 05:14:24;;;;;;;12.45;9.08;;;;;;;21.45;92.18;99372.09;1478188;88;21566;-87
2023/07/02 05:16:50;;;;;;;11.38;10.28;;;;;;;21.48;91.81;99379.69;1493409;87;21381;-86
2023/07/02 05:19:16;;;;;;;9.80;8.80;;;;;;;21.53;91.48;99381.66;1473529;88;21374;-86
2023/07/02 05:21:43;;;;;;;9.25;8.33;;;;;;;21.55;91.65;99379.00;1490365;87;22342;-86
2023/07/02 05:24:09;;;;;;;12.80;9.00;;;;;;;21.62;91.58;99378.30;1476339;88;21368;-86
2023/07/02 05:26:35;;;;;;;10.78;9.68;;;;;;;21.67;91.78;99391.57;1486772;87;21549;-86
2023/07/02 05:29:02;;;;;;;10.80;9.68;;;;;;;21.67;91.78;99391.57;1481188;88;21441;-86
2023/07/02 05:31:28;;;;;;;10.48;9.50;;;;;;;21.68;91.49;99391.84;1497560;87;21365;-87
2023/07/02 05:33:55;;;;;;;10.50;9.43;;;;;;;21.68;91.13;99397.23;1481251;87;21464;-87
2023/07/02 05:36:21;;;;;;;12.18;9.55;;;;;;;21.68;91.21;99398.58;1478189;88;22225;-88
2023/07/02 05:38:47;;;;;;;12.40;9.10;;;;;;;21.73;91.52;99398.13;1492412;87;21351;-86
2023/07/02 05:41:21;;;;;;;12.40;9.48;;;;;;;21.77;91.63;99405.18;1475714;87;21560;-87
2023/07/02 05:43:47;;;;;;;11.20;9.75;;;;;;;21.82;91.41;99409.30;1492230;87;21507;-87
2023/07/02 05:46:15;;;;;;;13.62;10.88;;;;;;;21.93;91.16;99409.74;1488354;87;22261;-86
2023/07/02 05:48:42;;;;;;;12.68;11.35;;;;;;;21.93;91.16;99409.74;1477359;87;21550;-87
2023/07/02 05:51:08;;;;;;;11.20;10.18;;;;;;;21.93;91.22;99406.23;1476991;88;22299;-87
2023/07/02 05:53:37;;;;;;;18.15;11.12;;;;;;;22.01;90.93;99410.67;1476621;88;21613;-88
2023/07/02 05:56:03;;;;;;;11.97;10.48;;;;;;;22.04;90.67;99414.76;1474383;88;21374;-86
2023/07/02 05:58:34;;;;;;;11.33;10.10;;;;;;;22.07;90.39;99410.22;1470518;88;21555;-87
2023/07/02 06:00:57;;;;;;;10.05;9.15;;;;;;;22.14;90.18;99414.08;1483935;87;21558;-86
2023/07/02 06:03:24;;;;;;;10.10;9.13;;;;;;;22.14;90.18;99414.08;1481375;87;21463;-87
2023/07/02 06:05:50;;;;;;;13.45;10.08;;;;;;;22.16;90.08;99406.57;1492935;87;21418;-87
2023/07/02 06:08:17;;;;;;;15.05;10.35;;;;;;;22.27;89.97;99418.62;1492966;87;22476;-86
2023/07/02 06:10:46;;;;;;;11.22;10.10;;;;;;;22.33;89.82;99418.16;1488411;87;21461;-86
2023/07/02 06:13:13;;;;;;;13.00;10.20;;;;;;;22.41;89.83;99417.73;1479573;87;21384;-88
2023/07/02 06:15:40;;;;;;;10.95;9.80;;;;;;;22.43;88.65;99422.85;1477982;88;22247;-88
2023/07/02 06:18:06;;;;;;;12.53;11.10;;;;;;;22.47;88.66;99420.77;1490945;87;21447;-87
2023/07/02 06:20:32;;;;;;;11.05;10.00;;;;;;;22.52;88.54;99424.05;1487979;87;21329;-86
2023/07/02 06:22:58;;;;;;;12.15;10.88;;;;;;;22.57;88.08;99424.66;1489088;87;22401;-88
2023/07/02 06:25:26;;;;;;;11.30;9.20;;;;;;;22.63;87.86;99424.45;1474003;88;21264;-87
2023/07/02 06:27:54;;;;;;;13.72;11.00;;;;;;;22.72;87.67;99424.83;1487826;87;21426;-87
2023/07/02 06:30:20;;;;;;;11.53;10.40;;;;;;;22.81;87.13;99419.27;1494773;87;21425;-87
2023/07/02 06:32:46;;;;;;;12.07;10.78;;;;;;;22.93;86.77;99419.13;1473163;87;22386;-87
2023/07/02 06:35:12;;;;;;;12.37;11.15;;;;;;;23.08;86.42;99418.53;1487586;87;21409;-84
2023/07/02 06:37:38;;;;;;;11.40;10.40;;;;;;;23.19;85.65;99418.38;1464805;88;21404;-81
2023/07/02 06:40:07;;;;;;;12.07;9.78;;;;;;;23.21;84.84;99420.80;1490402;87;21664;-83
2023/07/02 06:42:33;;;;;;;13.85;10.03;;;;;;;23.22;84.28;99423.80;1486046;87;21565;-83
2023/07/02 06:44:59;;;;;;;15.15;10.82;;;;;;;23.22;83.72;99421.61;1489192;87;21507;-83
2023/07/02 06:47:25;;;;;;;15.85;10.85;;;;;;;23.23;83.58;99421.37;1482434;88;21382;-83
2023/07/02 06:49:52;;;;;;;14.15;12.25;;;;;;;23.29;83.51;99425.74;1491181;87;21909;-81
2023/07/02 06:52:19;;;;;;;14.45;11.48;;;;;;;23.34;83.11;99425.80;1490881;87;21380;-83
2023/07/02 06:54:45;;;;;;;19.40;12.65;;;;;;;23.49;83.12;99427.01;1473613;87;21486;-83
2023/07/02 06:57:13;;;;;;;17.98;10.68;;;;;;;23.67;82.59;99430.66;1478260;88;21337;-84
2023/07/02 06:59:39;;;;;;;9.23;8.33;;;;;;;23.90;82.94;99429.52;1483087;88;21404;-83
2023/07/02 07:02:06;;;;;;;15.65;9.33;;;;;;;24.03;81.61;99422.33;1487908;88;22270;-83
2023/07/02 07:04:34;;;;;;;16.48;9.83;;;;;;;24.18;81.06;99422.95;1481800;88;21381;-83
2023/07/02 07:07:06;;;;;;;19.48;9.43;;;;;;;24.19;79.98;99421.05;1474927;88;21359;-83
2023/07/02 07:09:32;;;;;;;10.98;9.63;;;;;;;24.25;79.67;99418.66;1491612;87;22195;-82
2023/07/02 07:11:58;;;;;;;12.93;8.98;;;;;;;24.36;79.37;99420.88;1476207;87;21545;-82
2023/07/02 07:14:25;;;;;;;11.28;9.83;;;;;;;24.46;79.41;99423.68;1480833;88;21353;-84
2023/07/02 07:16:51;;;;;;;15.93;10.35;;;;;;;24.49;79.28;99431.27;1494213;87;22260;-84
2023/07/02 07:19:17;;;;;;;13.32;9.90;;;;;;;24.57;78.79;99432.12;1489423;87;21381;-83
2023/07/02 07:21:43;;;;;;;10.95;9.90;;;;;;;24.64;78.48;99423.20;1490854;87;21514;-82
2023/07/02 07:24:09;;;;;;;13.45;10.20;;;;;;;24.70;77.62;99426.20;1486165;87;21374;-85
2023/07/02 07:26:38;;;;;;;15.45;11.48;;;;;;;24.79;77.40;99425.70;1474491;88;21456;-84
2023/07/02 07:29:05;;;;;;;13.53;10.95;;;;;;;24.89;77.28;99423.03;1491585;87;21315;-83
2023/07/02 07:31:31;;;;;;;27.05;10.90;;;;;;;24.92;76.59;99422.50;1465462;87;21440;-81
2023/07/02 07:33:57;;;;;;;10.98;9.98;;;;;;;24.99;76.59;99427.11;1474873;88;22275;-81
2023/07/02 07:36:23;;;;;;;14.98;9.03;;;;;;;25.12;76.94;99423.09;1489797;87;21367;-84
2023/07/02 07:38:49;;;;;;;13.55;11.00;;;;;;;25.20;76.28;99427.47;1477815;87;22233;-83
2023/07/02 07:41:15;;;;;;;10.65;9.40;;;;;;;25.33;76.15;99423.96;1488097;87;21352;-83
2023/07/02 07:43:41;;;;;;;11.88;10.48;;;;;;;25.44;75.72;99421.53;1488546;87;22277;-81
2023/07/02 07:46:08;;;;;;;12.75;10.18;;;;;;;25.53;75.06;99421.27;1488532;87;21558;-82
2023/07/02 07:48:34;;;;;;;13.00;10.23;;;;;;;25.63;74.82;99423.15;1469628;87;21330;-83
2023/07/02 07:51:00;;;;;;;14.38;9.83;;;;;;;25.75;74.88;99421.52;1487247;87;21580;-86
2023/07/02 07:53:26;;;;;;;10.35;9.25;;;;;;;25.82;74.26;99424.78;1484733;87;22372;-85
2023/07/02 07:55:52;;;;;;;14.00;8.80;;;;;;;25.83;74.15;99422.36;1491041;87;21410;-84
2023/07/02 07:58:18;;;;;;;13.10;9.08;;;;;;;25.84;73.85;99426.72;1479025;87;21426;-83
2023/07/02 08:00:44;;;;;;;12.45;10.60;;;;;;;25.94;73.99;99419.91;1476909;88;21381;-81
2023/07/02 08:03:11;;;;;;;11.48;9.15;;;;;;;26.09;72.92;99427.20;1473707;88;21434;-84
2023/07/02 08:05:37;;;;;;;12.93;9.58;;;;;;;26.10;73.10;99421.52;1483309;87;21988;-83
2023/07/02 08:08:04;;;;;;;14.07;10.00;;;;;;;26.24;73.35;99415.50;1468998;87;21381;-82
2023/07/02 08:10:30;;;;;;;13.43;9.88;;;;;;;26.39;72.73;99422.25;1479227;88;21366;-80
2023/07/02 08:12:56;;;;;;;16.35;9.93;;;;;;;26.50;71.78;99417.64;1475947;88;22195;-82
2023/07/02 08:15:22;;;;;;;9.15;8.23;;;;;;;26.60;71.56;99420.84;1487691;87;21454;-82
2023/07/02 08:17:49;;;;;;;11.25;9.28;;;;;;;26.64;71.00;99410.50;1478867;87;21460;-84
2023/07/02 08:20:16;;;;;;;9.35;8.38;;;;;;;26.74;70.91;99417.25;1492673;87;22312;-82
2023/07/02 08:22:43;;;;;;;8.88;7.10;;;;;;;26.80;70.33;99416.68;1476066;87;21293;-82
2023/07/02 08:25:09;;;;;;;14.58;9.30;;;;;;;26.90;69.56;99423.43;1488756;87;22327;-84
2023/07/02 08:27:35;;;;;;;18.05;7.87;;;;;;;26.94;69.19;99423.67;1484785;87;21488;-83
2023/07/02 08:30:01;;;;;;;9.28;7.30;;;;;;;27.04;69.45;99416.00;1450361;88;21617;-83
2023/07/02 08:32:28;;;;;;;12.63;7.90;;;;;;;27.08;68.67;99417.89;1490649;87;21744;-82
2023/07/02 08:34:54;;;;;;;11.48;7.20;;;;;;;27.16;68.74;99413.78;1478836;88;21900;-84
2023/07/02 08:37:21;;;;;;;9.08;7.30;;;;;;;27.21;68.32;99416.47;1474170;88;21425;-82
2023/07/02 08:39:49;;;;;;;15.58;7.67;;;;;;;27.33;68.63;99423.70;1490446;87;21307;-82
2023/07/02 08:42:16;;;;;;;12.45;7.40;;;;;;;27.42;67.90;99425.30;1474135;87;22453;-84
2023/07/02 08:44:48;;;;;;;9.13;7.17;;;;;;;27.49;67.73;99426.33;1484999;87;21367;-83
2023/07/02 08:47:14;;;;;;;10.55;6.70;;;;;;;27.51;66.89;99424.15;1491004;87;21574;-84
2023/07/02 08:49:43;;;;;;;7.67;6.90;;;;;;;27.56;66.74;99418.65;1486607;87;21366;-83
2023/07/02 08:52:09;;;;;;;10.20;7.80;;;;;;;27.61;66.65;99410.46;1554235;88;21353;-83
2023/07/02 08:54:35;;;;;;;10.00;7.45;;;;;;;27.64;66.11;99424.84;1411943;87;21381;-82
2023/07/02 08:57:04;;;;;;;8.63;6.72;;;;;;;27.63;65.36;99417.23;1401512;87;22210;-83
2023/07/02 08:59:29;;;;;;;8.93;7.72;;;;;;;27.64;65.85;99415.33;1505912;87;21528;-83
2023/07/02 09:01:55;;;;;;;18.42;7.20;;;;;;;27.74;65.55;99423.41;1474414;87;21575;-82
2023/07/02 09:04:24;;;;;;;10.58;7.50;;;;;;;27.81;66.16;99418.46;1485131;87;21352;-83
2023/07/02 09:07:09;;;;;;;8.28;6.72;;;;;;;27.88;65.43;99417.59;1475104;87;21529;-82
2023/07/02 09:09:50;;;;;;;12.37;6.75;;;;;;;27.90;65.26;99417.30;1472513;88;22087;-85
2023/07/02 09:12:31;;;;;;;11.18;6.45;;;;;;;27.93;65.46;99419.99;1488214;87;22007;-84
2023/07/02 09:15:03;;;;;;;14.25;6.85;;;;;;;27.90;64.57;99416.73;1408859;87;22181;-85
2023/07/02 09:17:35;;;;;;;8.30;7.30;;;;;;;27.93;64.72;99415.36;1398481;88;21287;-85
2023/07/02 09:20:05;;;;;;;13.15;7.08;;;;;;;27.94;64.23;99416.16;1563329;88;21241;-84
2023/07/02 09:22:32;;;;;;;10.55;6.80;;;;;;;27.97;64.09;99415.62;1575441;87;21183;-85
2023/07/02 09:25:00;;;;;;;9.33;6.05;;;;;;;28.06;63.57;99420.69;1411678;87;21397;-84
2023/07/02 09:27:42;;;;;;;8.25;6.60;;;;;;;28.07;63.01;99425.02;1406184;87;21316;-83
2023/07/02 09:30:15;;;;;;;21.12;6.30;;;;;;;27.96;63.13;99418.05;1410669;87;21241;-84
2023/07/02 09:32:45;;;;;;;7.33;5.78;;;;;;;27.96;62.75;99420.77;1562926;87;21258;-83
2023/07/02 09:35:12;;;;;;;;;;;;;;;28.06;63.10;99426.93;1403106;88;21294;-82
2023/07/02 09:37:41;;;;;;;8.83;6.30;;;;;;;28.22;63.15;99422.13;1382223;89;20845;-83
2023/07/02 09:40:08;;;;;;;10.48;6.08;;;;;;;28.27;62.41;99422.08;1404868;88;21272;-83
2023/07/02 09:42:37;;;;;;;10.05;5.92;;;;;;;28.24;61.97;99426.73;1541159;88;22057;-84
2023/07/02 09:45:07;;;;;;;6.72;6.03;;;;;;;28.28;61.81;99421.00;1552179;88;22212;-84
2023/07/02 09:47:37;;;;;;;10.60;6.28;;;;;;;28.37;61.88;99433.41;1575558;87;21190;-83
2023/07/02 09:50:05;;;;;;;16.95;6.40;;;;;;;28.46;61.50;99426.26;1408002;87;22073;-84
2023/07/02 09:52:34;;;;;;;8.90;6.20;;;;;;;28.60;61.84;99429.09;1399116;88;21236;-82
2023/07/02 09:55:01;;;;;;;11.83;6.90;;;;;;;28.59;60.72;99430.17;1415004;87;21375;-83
2023/07/02 09:57:31;;;;;;;16.12;6.85;;;;;;;28.41;61.39;99428.20;1411292;87;21256;-83
2023/07/02 09:59:55;;;;;;;13.22;6.22;;;;;;;28.35;61.87;99430.16;1409196;87;21463;-85
2023/07/02 10:02:21;;;;;;;11.20;6.45;;;;;;;28.29;61.73;99425.33;1441559;88;21434;-81
2023/07/02 10:04:54;;;;;;;6.65;5.95;;;;;;;28.33;61.50;99423.64;1477410;88;21486;-84
2023/07/02 10:07:34;;;;;;;7.43;6.63;;;;;;;28.37;61.91;99426.61;1460948;89;21507;-84
2023/07/02 10:10:01;;;;;;;11.53;6.05;;;;;;;28.35;61.86;99422.80;1457891;89;21404;-82
2023/07/02 10:12:30;;;;;;;8.88;6.05;;;;;;;28.35;62.27;99414.64;1477111;88;21433;-84
2023/07/02 10:14:58;;;;;;;10.00;6.50;;;;;;;28.49;62.15;99418.06;1409340;87;21455;-84
2023/07/02 10:17:33;;;;;;;10.40;6.17;;;;;;;28.73;61.24;99416.66;1399058;88;21250;-84
2023/07/02 10:20:06;;;;;;;7.85;5.40;;;;;;;28.91;61.97;99412.34;1569702;87;21366;-81
2023/07/02 10:22:32;;;;;;;8.65;6.35;;;;;;;29.14;60.81;99406.03;1390971;90;21301;-82
2023/07/02 10:25:03;;;;;;;9.90;6.20;;;;;;;29.37;60.53;99411.69;1398422;88;21323;-83
2023/07/02 10:27:41;;;;;;;11.90;5.58;;;;;;;29.55;59.85;99397.23;1562968;88;22130;-82
2023/07/02 10:30:10;;;;;;;9.30;6.13;;;;;;;29.77;59.67;99396.59;1398233;88;21324;-82
2023/07/02 10:32:38;;;;;;;11.15;5.60;;;;;;;29.87;58.94;99396.98;1415280;87;22066;-84
2023/07/02 10:35:18;;;;;;;10.03;6.17;;;;;;;29.68;57.31;99398.39;1439012;88;21227;-83
2023/07/02 10:37:44;;;;;;;6.75;5.25;;;;;;;29.41;57.74;99396.38;1409218;87;22219;-84
2023/07/02 10:40:12;;;;;;;11.33;5.35;;;;;;;29.57;58.65;99392.27;1401340;87;21235;-84
2023/07/02 10:42:53;;;;;;;6.75;6.00;;;;;;;29.67;57.65;99399.52;1410819;87;21293;-83
2023/07/02 10:45:21;;;;;;;7.22;5.10;;;;;;;29.79;57.17;99391.66;1574955;87;21982;-83
2023/07/02 10:47:48;;;;;;;11.22;6.08;;;;;;;29.85;56.28;99395.09;1560850;88;21419;-84
2023/07/02 10:50:19;;;;;;;10.53;5.08;;;;;;;29.88;54.63;99383.59;1411922;87;21356;-84
2023/07/02 10:52:46;;;;;;;11.08;5.58;;;;;;;29.85;54.61;99378.73;1399144;88;21220;-83
2023/07/02 10:55:24;;;;;;;9.30;5.28;;;;;;;29.73;54.24;99384.68;1473263;87;21668;-85
2023/07/02 10:58:04;;;;;;;10.23;5.05;;;;;;;29.77;54.88;99378.06;1488401;87;21521;-84
2023/07/02 11:00:31;;;;;;;11.22;5.22;;;;;;;29.87;54.49;99375.97;1481722;88;23014;-85
2023/07/02 11:02:59;;;;;;;8.73;4.92;;;;;;;29.90;54.27;99366.38;1400523;88;22145;-82
2023/07/02 11:05:25;;;;;;;9.00;5.15;;;;;;;30.01;54.18;99365.08;1399887;88;21464;-83
2023/07/02 11:07:56;;;;;;;8.15;4.95;;;;;;;30.13;53.69;99362.65;1401555;88;21191;-84
2023/07/02 11:10:20;;;;;;;6.60;5.35;;;;;;;30.23;54.01;99360.29;1505417;87;21382;-83
2023/07/02 11:12:46;;;;;;;6.42;4.25;;;;;;;30.38;52.48;99359.16;1401426;87;21242;-84
2023/07/02 11:15:14;;;;;;;8.20;5.50;;;;;;;30.43;52.21;99353.60;1427812;88;22410;-84
2023/07/02 11:17:41;;;;;;;7.78;4.95;;;;;;;30.54;51.98;99338.63;1409397;87;21234;-85
2023/07/02 11:20:13;;;;;;;15.48;5.62;;;;;;;30.52;51.98;99340.84;1400728;87;22175;-84
2023/07/02 11:22:40;;;;;;;10.78;4.97;;;;;;;30.45;52.08;99345.92;1408994;87;21308;-85
2023/07/02 11:25:16;;;;;;;8.93;5.20;;;;;;;30.38;51.82;99340.63;1382566;89;21243;-85
2023/07/02 11:27:43;;;;;;;9.60;5.55;;;;;;;30.30;52.28;99341.60;1408030;87;22078;-82
2023/07/02 11:30:11;;;;;;;10.70;4.83;;;;;;;30.20;52.62;99342.33;1400733;87;21228;-82